Fort Loudoun Observed Data For Previous 48 Hours

Caption
Day and Hour Reservoir Elevation (behind dam)* Tailwater Elevation (below dam)* Average Hourly Discharge*
1/15/2018 2 AM EST 808.61 737.24 11,256
1/15/2018 3 AM EST 808.65 737.29 11,442
1/15/2018 4 AM EST 808.64 738.76 19,216
1/15/2018 5 AM EST 808.66 739.08 22,811
1/15/2018 6 AM EST 808.65 739.22 22,965
1/15/2018 7 AM EST 808.64 739.22 22,964
1/15/2018 8 AM EST 808.61 739.15 22,955
1/15/2018 9 AM EST 808.57 739.09 22,924
1/15/2018 10 AM EST 808.58 738.58 17,635
1/15/2018 11 AM EST 808.54 738.46 17,754
1/15/2018 12 PM EST 808.52 738.40 17,694
1/15/2018 1 PM EST 808.51 738.42 17,669
1/15/2018 2 PM EST 808.56 737.52 11,857
1/15/2018 3 PM EST 808.60 737.35 11,470
1/15/2018 4 PM EST 808.64 737.34 11,442
1/15/2018 5 PM EST 808.65 737.43 11,409
1/15/2018 6 PM EST 808.68 737.52 11,500
1/15/2018 7 PM EST 808.68 738.31 17,378
1/15/2018 8 PM EST 808.71 738.41 17,471
1/15/2018 9 PM EST 808.71 738.44 17,411
1/15/2018 10 PM EST 808.71 738.45 17,347
1/15/2018 11 PM EST 808.71 738.42 17,341
1/16/2018 12 AM EST 808.71 738.41 17,311
1/16/2018 1 AM EST 808.72 738.55 17,692
1/16/2018 2 AM EST 808.69 738.95 22,624
1/16/2018 3 AM EST 808.65 739.05 22,678
1/16/2018 4 AM EST 808.65 739.11 22,761
1/16/2018 5 AM EST 808.63 739.09 22,768
1/16/2018 6 AM EST 808.66 739.11 22,843
1/16/2018 7 AM EST 808.66 739.16 22,839
1/16/2018 8 AM EST 808.66 739.15 22,909
1/16/2018 9 AM EST 808.65 739.16 22,805
1/16/2018 10 AM EST 808.63 739.17 22,908
1/16/2018 11 AM EST 808.60 739.17 22,888
1/16/2018 12 PM EST 808.55 739.15 22,866
1/16/2018 1 PM EST 808.51 739.09 22,853
1/16/2018 2 PM EST 808.47 739.12 23,012
1/16/2018 3 PM EST 808.49 739.08 22,984
1/16/2018 4 PM EST 808.54 739.21 22,986
1/16/2018 5 PM EST 808.57 739.22 22,891
1/16/2018 6 PM EST 808.56 739.20 22,853
1/16/2018 7 PM EST 808.55 739.23 22,970
1/16/2018 8 PM EST 808.55 739.25 22,960
1/16/2018 9 PM EST 808.56 739.25 22,951
1/16/2018 10 PM EST 808.56 739.24 22,871
1/16/2018 11 PM EST 808.56 739.30 22,839
1/17/2018 12 AM EST 808.55 739.21 22,947
1/17/2018 1 AM EST 808.57 739.16 22,959
1/17/2018 2 AM EST 808.57 739.11 22,977
1/17/2018 3 AM EST 808.57 739.11 23,032
1/17/2018 4 AM EST 808.58 739.08 22,978
1/17/2018 5 AM EST 808.60 739.09 22,961
1/17/2018 6 AM EST 808.61 739.09 22,901
1/17/2018 7 AM EST 808.61 739.11 22,967
1/17/2018 8 AM EST 808.62 739.19 22,877
1/17/2018 9 AM EST 808.62 739.28 23,004
1/17/2018 10 AM EST 808.63 739.24 22,911
1/17/2018 11 AM EST 808.64 739.20 22,880
1/17/2018 12 PM EST 808.68 739.10 22,890
1/17/2018 1 PM EST 808.71 739.09 22,907
1/17/2018 2 PM EST 808.74 739.06 22,822
1/17/2018 3 PM EST 808.76 739.06 22,785
1/17/2018 4 PM EST 808.77 739.12 22,859
1/17/2018 5 PM EST 808.79 739.12 22,925
1/17/2018 6 PM EST 808.81 739.12 22,866
1/17/2018 7 PM EST 808.82 739.17 22,833
1/17/2018 8 PM EST 808.82 739.22 22,786
1/17/2018 9 PM EST 808.82 739.20 22,854
1/17/2018 10 PM EST 808.82 739.21 22,838

Elevations are in feet above sea level. Discharges are in cubic feet per second and are reported at the end of the hour.